Архив погоды в Ефимовской

Метеограмма Ефимовская
Воскресенье, 22 Июля
Время местн. Темп Ветер Видим Явления Облачность нижн/средн/верх Атм. давл. Влжн Точка росы ВНГО R Сост. почвы Tg s
Напр Скр Прв ур.ст ур.м изм
03:00 - +19° Ю-В 2 - - - - 743 758 +0.2 93% +17.9° - - - - -
00:00 - +19.6° Ю-В 2 - - - - 743 758 +0.2 90% +17.9° - - - - -
Суббота, 21 Июля
Время местн. Темп Ветер Видим Явления Облачность нижн/средн/верх Атм. давл. Влжн Точка росы ВНГО R Сост. почвы Tg s
Напр Скр Прв ур.ст ур.м изм
21:00 +20° В,Ю-В 2 - 20 км ливневый дождь преимущественно облачно 743 758 +0.6 91% +18.4° 1 км 6 - - -
18:00 - +20.8° В 2 - - - - 742 757 -0.2 95% +19.9° - - - - -
15:00 - +22.7° Ю-В 5 - - - - 742 757 +0.3 74% +17.8° - - - - -
12:00 - +22.3° Ю-В 4 - - - - 742 757 +0.2 80% +18.6° - - - - -
09:00 +20.3° В,Ю-В 3 - 20 км - облачно 742 757 +0.2 88% +18.2° 600 м 12 Сырая (есть малые или большие лужи) - -
06:00 - +19.7° В,Ю-В 3 - - - - 741 757 0 92% +18.4° - - - - -
03:00 - +19.4° В 3 - - - - 741 757 +0.1 95% +18.6° - - - - -
00:00 - +19.6° В,Ю-В 3 - - - - 741 757 -0.2 95% +18.8° - - - - -
Пятница, 20 Июля
Время местн. Темп Ветер Видим Явления Облачность нижн/средн/верх Атм. давл. Влжн Точка росы ВНГО R Сост. почвы Tg s
Напр Скр Прв ур.ст ур.м изм
21:00 +20° В 2 - 10 км слабый ливневый дождь облачно 741 757 +0.2 93% +18.9° 1 км 1 - - -
18:00 - +21.3° В 3 - - - - 741 756 -0.4 85% +18.7° - - - - -
15:00 - +20° В 2 - - - - 742 757 +0.1 91% +18.5° - - - - -
12:00 - +19.8° В 3 - - - - 742 757 +0.2 86% +17.4° - - - - -
09:00 +19.4° В 3 - 20 км - облачно 742 757 -0.3 86% +17° 600 м 4 Влажная (без луж) - -
06:00 - +18.8° В,С-В 2 - - - - 742 757 -0.8 88% +16.7° - - - - -
03:00 - +18.5° В,С-В 2 - - - - 743 758 -0.5 90% +16.9° - - - - -
00:00 - +18.7° С-В 1 - - - - 743 759 +0.2 92% +17.4° - - - - -
Четверг, 19 Июля
Время местн. Темп Ветер Видим Явления Облачность нижн/средн/верх Атм. давл. Влжн Точка росы ВНГО R Сост. почвы Tg s
Напр Скр Прв ур.ст ур.м изм
21:00 +21° С,С-В 1 - 20 км - облачно с прояснениями 743 758 -0.4 77% +16.9° 1 км 0 - - -
18:00 - +22.8° В,С-В 3 - - - - 743 759 -0.2 68% +16.7° - - - - -
15:00 - +23.6° С-В 3 - - - - 744 759 +0.2 59% +15° - - - - -
12:00 - +23.4° С-В 3 - - - - 743 759 -0.3 61% +15.5° - - - - -
09:00 +21.9° С-В 3 - 20 км - переменная облачность 744 759 -0.4 64% +14.9° более 2.5 км 0 Сухая (без трещин) - -
06:00 - +18.6° С-В 2 - - - - 744 759 +0.2 75% +14° - - - - -
03:00 - +18.7° С-В 2 - - - - 744 759 -0.2 73% +13.7° - - - - -
00:00 - +20.6° С-В 2 - - - - 744 759 +0.1 64% +13.6° - - - - -